DLH01Y EDDF-LFKB
Flight info
| Callsign | DLH01Y |
|---|---|
| Flight time | 1h 23m |
| Altitude | 37000 |
| Route | ANEKI2L ANEKI Y163 NATOR DCT TRA DCT RIPUS DCT GERSA DCT SOSON DCT ODINA DCT SRN DCT VOG DCT ITCAP DCT OLETI M858 LIGUR |
| Aircraft | A320/M-SDE2E3FGIJ1LORWXYZ/HB1 |
Departure
| Time | 2026-05-08 14:15 |
|---|---|
| Airport | Frankfurt Main Airport (EDDF) |
Arrival
| Time | 2026-05-08 15:38 |
|---|---|
| Airport | Bastia-Poretta International airport (LFKB) |
| Time | Latitude | Longitude | Altitude | Speed | Heading |
|---|---|---|---|---|---|
| 2026-05-08 13:40 | 50.04684 | 8.56135 | 365 ft | 0 kts | 340° |
| 2026-05-08 14:02 | 50.04676 | 8.56139 | 365 ft | 2 kts | 340° |
| 2026-05-08 14:02 | 50.04662 | 8.56147 | 365 ft | 2 kts | 340° |
| 2026-05-08 14:02 | 50.04653 | 8.56152 | 365 ft | 2 kts | 334° |
| 2026-05-08 14:03 | 50.04642 | 8.56168 | 365 ft | 2 kts | 303° |
| 2026-05-08 14:03 | 50.04636 | 8.56189 | 365 ft | 2 kts | 278° |
| 2026-05-08 14:03 | 50.04636 | 8.56211 | 365 ft | 1 kts | 254° |
| 2026-05-08 14:03 | 50.04639 | 8.56220 | 365 ft | 1 kts | 248° |
| 2026-05-08 14:04 | 50.04639 | 8.56223 | 365 ft | 0 kts | 250° |
| 2026-05-08 14:05 | 50.04639 | 8.56221 | 365 ft | 0 kts | 250° |
| 2026-05-08 14:06 | 50.04635 | 8.56204 | 365 ft | 2 kts | 250° |
| 2026-05-08 14:06 | 50.04627 | 8.56171 | 365 ft | 4 kts | 250° |
| 2026-05-08 14:06 | 50.04615 | 8.56123 | 365 ft | 5 kts | 250° |
| 2026-05-08 14:06 | 50.04600 | 8.56059 | 365 ft | 7 kts | 250° |
| 2026-05-08 14:07 | 50.04581 | 8.55981 | 365 ft | 8 kts | 243° |
| 2026-05-08 14:07 | 50.04530 | 8.55928 | 365 ft | 9 kts | 198° |
| 2026-05-08 14:07 | 50.04475 | 8.55901 | 364 ft | 6 kts | 198° |
| 2026-05-08 14:07 | 50.04423 | 8.55889 | 363 ft | 9 kts | 175° |
| 2026-05-08 14:08 | 50.04356 | 8.55922 | 362 ft | 10 kts | 160° |
| 2026-05-08 14:08 | 50.04289 | 8.55961 | 360 ft | 9 kts | 171° |
| 2026-05-08 14:08 | 50.04228 | 8.55894 | 357 ft | 13 kts | 248° |
| 2026-05-08 14:08 | 50.04194 | 8.55748 | 356 ft | 15 kts | 251° |
| 2026-05-08 14:09 | 50.04155 | 8.55587 | 356 ft | 15 kts | 250° |
| 2026-05-08 14:09 | 50.04117 | 8.55427 | 356 ft | 16 kts | 250° |
| 2026-05-08 14:09 | 50.04075 | 8.55250 | 354 ft | 18 kts | 250° |
| 2026-05-08 14:09 | 50.04028 | 8.55057 | 350 ft | 20 kts | 250° |
| 2026-05-08 14:10 | 50.03974 | 8.54835 | 348 ft | 22 kts | 250° |
| 2026-05-08 14:10 | 50.03922 | 8.54614 | 344 ft | 20 kts | 250° |
| 2026-05-08 14:10 | 50.03873 | 8.54413 | 343 ft | 16 kts | 250° |
| 2026-05-08 14:10 | 50.03818 | 8.54281 | 342 ft | 14 kts | 237° |
| 2026-05-08 14:11 | 50.03779 | 8.54136 | 344 ft | 14 kts | 250° |
| 2026-05-08 14:11 | 50.03745 | 8.53996 | 347 ft | 13 kts | 250° |
| 2026-05-08 14:11 | 50.03713 | 8.53863 | 348 ft | 12 kts | 250° |
| 2026-05-08 14:11 | 50.03682 | 8.53730 | 348 ft | 13 kts | 250° |
| 2026-05-08 14:12 | 50.03645 | 8.53582 | 348 ft | 15 kts | 248° |
| 2026-05-08 14:12 | 50.03605 | 8.53420 | 347 ft | 16 kts | 251° |
| 2026-05-08 14:12 | 50.03562 | 8.53237 | 343 ft | 19 kts | 250° |
| 2026-05-08 14:12 | 50.03513 | 8.53035 | 342 ft | 20 kts | 247° |
| 2026-05-08 14:13 | 50.03469 | 8.52863 | 341 ft | 12 kts | 247° |
| 2026-05-08 14:13 | 50.03451 | 8.52801 | 341 ft | 5 kts | 247° |
| 2026-05-08 14:13 | 50.03433 | 8.52733 | 340 ft | 7 kts | 249° |
| 2026-05-08 14:13 | 50.03409 | 8.52643 | 340 ft | 9 kts | 237° |
| 2026-05-08 14:14 | 50.03344 | 8.52594 | 339 ft | 9 kts | 181° |
| 2026-05-08 14:14 | 50.03338 | 8.52594 | 338 ft | 0 kts | 180° |
| 2026-05-08 14:14 | 50.03331 | 8.52594 | 338 ft | 7 kts | 180° |
| 2026-05-08 14:14 | 50.02997 | 8.52601 | 332 ft | 87 kts | 180° |
| 2026-05-08 14:15 | 50.02148 | 8.52606 | 329 ft | 152 kts | 180° |
| 2026-05-08 14:15 | 50.00967 | 8.52601 | 609 ft | 180 kts | 179° |
| 2026-05-08 14:15 | 49.99719 | 8.52627 | 1281 ft | 182 kts | 177° |
| 2026-05-08 14:15 | 49.98495 | 8.52709 | 2123 ft | 177 kts | 176° |
| 2026-05-08 14:16 | 49.97288 | 8.52802 | 2888 ft | 176 kts | 176° |
| 2026-05-08 14:16 | 49.96064 | 8.52896 | 3591 ft | 179 kts | 176° |
| 2026-05-08 14:16 | 49.94774 | 8.52995 | 4093 ft | 195 kts | 176° |
| 2026-05-08 14:16 | 49.93369 | 8.53102 | 4585 ft | 212 kts | 176° |
| 2026-05-08 14:17 | 49.91808 | 8.53216 | 5009 ft | 236 kts | 176° |
| 2026-05-08 14:17 | 49.90174 | 8.53331 | 5799 ft | 241 kts | 177° |
| 2026-05-08 14:17 | 49.88502 | 8.53447 | 6701 ft | 243 kts | 177° |
| 2026-05-08 14:17 | 49.86816 | 8.53566 | 7561 ft | 246 kts | 178° |
| 2026-05-08 14:18 | 49.85109 | 8.53686 | 8396 ft | 248 kts | 178° |
| 2026-05-08 14:18 | 49.83404 | 8.53805 | 9225 ft | 251 kts | 179° |
| 2026-05-08 14:18 | 49.81675 | 8.53926 | 10052 ft | 253 kts | 179° |
| 2026-05-08 14:18 | 49.79926 | 8.54045 | 10859 ft | 256 kts | 179° |
| 2026-05-08 14:19 | 49.78136 | 8.54101 | 11663 ft | 258 kts | 184° |
| 2026-05-08 14:19 | 49.76349 | 8.53937 | 12294 ft | 266 kts | 187° |
| 2026-05-08 14:19 | 49.74459 | 8.53688 | 12714 ft | 283 kts | 187° |
| 2026-05-08 14:19 | 49.72453 | 8.53416 | 13260 ft | 295 kts | 187° |
| 2026-05-08 14:20 | 49.70418 | 8.53143 | 13985 ft | 298 kts | 187° |
| 2026-05-08 14:20 | 49.68347 | 8.52867 | 14749 ft | 300 kts | 187° |
| 2026-05-08 14:20 | 49.66265 | 8.52591 | 15475 ft | 303 kts | 187° |
| 2026-05-08 14:20 | 49.64164 | 8.52313 | 16191 ft | 306 kts | 187° |
| 2026-05-08 14:21 | 49.62041 | 8.52033 | 16898 ft | 308 kts | 187° |
| 2026-05-08 14:21 | 49.59909 | 8.51752 | 17588 ft | 311 kts | 187° |
| 2026-05-08 14:21 | 49.57768 | 8.51470 | 18269 ft | 313 kts | 187° |
| 2026-05-08 14:21 | 49.55598 | 8.51185 | 18939 ft | 315 kts | 187° |
| 2026-05-08 14:22 | 49.53397 | 8.50896 | 19583 ft | 318 kts | 187° |
| 2026-05-08 14:22 | 49.51213 | 8.50610 | 20209 ft | 321 kts | 187° |
| 2026-05-08 14:22 | 49.48988 | 8.50318 | 20837 ft | 324 kts | 187° |
| 2026-05-08 14:22 | 49.46725 | 8.50020 | 21469 ft | 326 kts | 187° |
| 2026-05-08 14:23 | 49.44470 | 8.49724 | 22063 ft | 329 kts | 187° |
| 2026-05-08 14:23 | 49.42184 | 8.49424 | 22652 ft | 332 kts | 187° |
| 2026-05-08 14:23 | 49.39886 | 8.49123 | 23219 ft | 335 kts | 187° |
| 2026-05-08 14:23 | 49.37581 | 8.48822 | 23777 ft | 337 kts | 188° |
| 2026-05-08 14:24 | 49.35224 | 8.48514 | 24329 ft | 340 kts | 188° |
| 2026-05-08 14:24 | 49.32885 | 8.48208 | 24860 ft | 343 kts | 188° |
| 2026-05-08 14:24 | 49.30487 | 8.47895 | 25392 ft | 345 kts | 188° |
| 2026-05-08 14:24 | 49.28110 | 8.47586 | 25888 ft | 348 kts | 187° |
| 2026-05-08 14:25 | 49.25677 | 8.47270 | 26382 ft | 350 kts | 187° |
| 2026-05-08 14:25 | 49.23276 | 8.46958 | 26854 ft | 352 kts | 187° |
| 2026-05-08 14:25 | 49.20810 | 8.46636 | 27323 ft | 355 kts | 187° |
| 2026-05-08 14:25 | 49.18341 | 8.46315 | 27780 ft | 357 kts | 187° |
| 2026-05-08 14:26 | 49.15872 | 8.45995 | 28234 ft | 359 kts | 187° |
| 2026-05-08 14:26 | 49.13364 | 8.45669 | 28682 ft | 360 kts | 187° |
| 2026-05-08 14:26 | 49.10882 | 8.45347 | 29096 ft | 363 kts | 187° |
| 2026-05-08 14:26 | 49.08358 | 8.45007 | 29489 ft | 365 kts | 188° |
| 2026-05-08 14:27 | 49.05841 | 8.44484 | 29890 ft | 366 kts | 192° |
| 2026-05-08 14:27 | 49.03352 | 8.43720 | 30278 ft | 367 kts | 195° |
| 2026-05-08 14:27 | 49.00869 | 8.42854 | 30644 ft | 370 kts | 195° |
| 2026-05-08 14:27 | 48.98357 | 8.41979 | 30995 ft | 372 kts | 195° |
| 2026-05-08 14:28 | 48.95837 | 8.41102 | 31301 ft | 374 kts | 195° |
| 2026-05-08 14:28 | 48.93317 | 8.40226 | 31589 ft | 376 kts | 195° |
| 2026-05-08 14:28 | 48.90738 | 8.39330 | 31879 ft | 378 kts | 195° |
| 2026-05-08 14:28 | 48.88179 | 8.38442 | 32157 ft | 381 kts | 195° |
| 2026-05-08 14:29 | 48.85599 | 8.37546 | 32425 ft | 383 kts | 195° |
| 2026-05-08 14:29 | 48.83000 | 8.36646 | 32694 ft | 385 kts | 195° |
| 2026-05-08 14:29 | 48.80385 | 8.35743 | 32961 ft | 387 kts | 195° |
| 2026-05-08 14:29 | 48.77776 | 8.34833 | 33210 ft | 389 kts | 195° |
| 2026-05-08 14:30 | 48.75090 | 8.33858 | 33434 ft | 391 kts | 195° |
| 2026-05-08 14:30 | 48.72454 | 8.32890 | 33631 ft | 394 kts | 195° |
| 2026-05-08 14:30 | 48.69782 | 8.31908 | 33826 ft | 396 kts | 196° |
| 2026-05-08 14:30 | 48.67117 | 8.30931 | 34017 ft | 398 kts | 196° |
| 2026-05-08 14:31 | 48.64413 | 8.29942 | 34201 ft | 400 kts | 196° |
| 2026-05-08 14:31 | 48.61709 | 8.28957 | 34380 ft | 403 kts | 196° |
| 2026-05-08 14:31 | 48.59011 | 8.27976 | 34563 ft | 405 kts | 196° |
| 2026-05-08 14:32 | 48.53455 | 8.26274 | 34951 ft | 410 kts | 190° |
| 2026-05-08 14:32 | 48.50646 | 8.25818 | 35134 ft | 413 kts | 186° |
| 2026-05-08 14:32 | 48.47742 | 8.25638 | 35326 ft | 415 kts | 183° |
| 2026-05-08 14:32 | 48.44885 | 8.25746 | 35513 ft | 418 kts | 179° |
| 2026-05-08 14:33 | 48.41989 | 8.26147 | 35695 ft | 420 kts | 175° |
| 2026-05-08 14:33 | 48.39090 | 8.26811 | 35861 ft | 422 kts | 174° |
| 2026-05-08 14:33 | 48.36177 | 8.27518 | 36025 ft | 424 kts | 174° |
| 2026-05-08 14:33 | 48.33267 | 8.28222 | 36176 ft | 425 kts | 174° |
| 2026-05-08 14:34 | 48.30313 | 8.28935 | 36326 ft | 427 kts | 174° |
| 2026-05-08 14:34 | 48.27390 | 8.29639 | 36469 ft | 428 kts | 174° |
| 2026-05-08 14:34 | 48.24430 | 8.30351 | 36609 ft | 430 kts | 174° |
| 2026-05-08 14:34 | 48.21490 | 8.31057 | 36738 ft | 431 kts | 174° |
| 2026-05-08 14:35 | 48.18530 | 8.31769 | 36870 ft | 433 kts | 174° |
| 2026-05-08 14:35 | 48.15541 | 8.32487 | 36985 ft | 435 kts | 174° |
| 2026-05-08 14:35 | 48.09616 | 8.33929 | 37000 ft | 435 kts | 174° |
| 2026-05-08 14:36 | 48.03630 | 8.35383 | 37004 ft | 435 kts | 174° |
| 2026-05-08 14:36 | 47.97675 | 8.36822 | 37006 ft | 434 kts | 174° |
| 2026-05-08 14:37 | 47.91724 | 8.38257 | 37012 ft | 434 kts | 174° |
| 2026-05-08 14:37 | 47.85752 | 8.39691 | 37017 ft | 435 kts | 174° |
| 2026-05-08 14:38 | 47.79782 | 8.41120 | 37017 ft | 435 kts | 174° |
| 2026-05-08 14:38 | 47.73834 | 8.42541 | 37018 ft | 435 kts | 174° |
| 2026-05-08 14:39 | 47.67906 | 8.43857 | 37014 ft | 433 kts | 177° |
| 2026-05-08 14:39 | 47.61890 | 8.44750 | 37009 ft | 433 kts | 177° |
| 2026-05-08 14:40 | 47.55937 | 8.45633 | 37007 ft | 433 kts | 177° |
| 2026-05-08 14:40 | 47.49959 | 8.46515 | 37000 ft | 433 kts | 177° |
| 2026-05-08 14:41 | 47.43971 | 8.47393 | 37009 ft | 432 kts | 177° |
| 2026-05-08 14:41 | 47.37983 | 8.48269 | 37006 ft | 433 kts | 177° |
| 2026-05-08 14:42 | 47.32012 | 8.49140 | 37011 ft | 433 kts | 178° |
| 2026-05-08 14:42 | 47.26023 | 8.50011 | 37013 ft | 433 kts | 177° |
| 2026-05-08 14:43 | 47.20067 | 8.50880 | 37014 ft | 433 kts | 177° |
| 2026-05-08 14:43 | 47.14064 | 8.51755 | 37018 ft | 433 kts | 177° |
| 2026-05-08 14:44 | 47.08103 | 8.52618 | 37021 ft | 433 kts | 177° |
| 2026-05-08 14:44 | 47.02129 | 8.53483 | 37030 ft | 433 kts | 177° |
| 2026-05-08 14:45 | 46.96137 | 8.54352 | 37034 ft | 433 kts | 177° |
| 2026-05-08 14:45 | 46.90154 | 8.55218 | 37048 ft | 432 kts | 178° |
| 2026-05-08 14:46 | 46.84165 | 8.56076 | 37057 ft | 432 kts | 178° |
| 2026-05-08 14:46 | 46.78233 | 8.56925 | 37068 ft | 433 kts | 178° |
| 2026-05-08 14:47 | 46.72224 | 8.57783 | 37053 ft | 433 kts | 178° |
| 2026-05-08 14:47 | 46.66242 | 8.58633 | 37045 ft | 434 kts | 178° |
| 2026-05-08 14:48 | 46.60272 | 8.59482 | 37046 ft | 434 kts | 178° |
| 2026-05-08 14:48 | 46.54262 | 8.60340 | 37052 ft | 434 kts | 178° |
| 2026-05-08 14:49 | 46.48240 | 8.61195 | 37058 ft | 434 kts | 178° |
| 2026-05-08 14:49 | 46.42267 | 8.62040 | 37057 ft | 434 kts | 178° |
| 2026-05-08 14:50 | 46.36296 | 8.62881 | 36891 ft | 434 kts | 178° |
| 2026-05-08 14:50 | 46.33257 | 8.63309 | 37090 ft | 435 kts | 178° |
| 2026-05-08 14:50 | 46.30281 | 8.63726 | 37081 ft | 434 kts | 178° |
| 2026-05-08 14:51 | 46.24290 | 8.64564 | 37077 ft | 434 kts | 178° |
| 2026-05-08 14:51 | 46.18276 | 8.65455 | 37078 ft | 436 kts | 176° |
| 2026-05-08 14:52 | 46.09388 | 8.68439 | 37067 ft | 443 kts | 165° |
| 2026-05-08 14:53 | 46.03697 | 8.71817 | 36837 ft | 446 kts | 158° |
| 2026-05-08 14:53 | 45.98201 | 8.76062 | 37071 ft | 449 kts | 155° |
| 2026-05-08 14:54 | 45.92744 | 8.80338 | 37033 ft | 448 kts | 155° |
| 2026-05-08 14:54 | 45.87283 | 8.84600 | 37028 ft | 448 kts | 155° |
| 2026-05-08 14:55 | 45.81833 | 8.88834 | 37025 ft | 448 kts | 156° |
| 2026-05-08 14:55 | 45.79100 | 8.90952 | 36886 ft | 449 kts | 156° |
| 2026-05-08 14:55 | 45.76338 | 8.93092 | 37065 ft | 449 kts | 156° |
| 2026-05-08 14:55 | 45.73614 | 8.95200 | 36927 ft | 449 kts | 156° |
| 2026-05-08 14:56 | 45.70843 | 8.97198 | 37078 ft | 447 kts | 160° |
| 2026-05-08 14:56 | 45.67971 | 8.98840 | 36853 ft | 443 kts | 166° |
| 2026-05-08 14:56 | 45.65006 | 9.00098 | 36960 ft | 440 kts | 171° |
| 2026-05-08 14:57 | 45.59019 | 9.01428 | 37013 ft | 434 kts | 181° |
| 2026-05-08 14:57 | 45.53055 | 9.01327 | 37022 ft | 431 kts | 188° |
| 2026-05-08 14:58 | 45.47087 | 9.00852 | 37016 ft | 431 kts | 188° |
| 2026-05-08 14:58 | 45.41079 | 9.00382 | 37013 ft | 432 kts | 188° |
| 2026-05-08 14:59 | 45.35120 | 8.99928 | 36999 ft | 432 kts | 188° |
| 2026-05-08 14:59 | 45.26133 | 8.99253 | 37002 ft | 432 kts | 188° |
| 2026-05-08 15:00 | 45.20127 | 8.98801 | 36987 ft | 432 kts | 188° |
| 2026-05-08 15:00 | 45.14132 | 8.98350 | 36987 ft | 432 kts | 188° |
| 2026-05-08 15:01 | 45.08148 | 8.97901 | 36968 ft | 432 kts | 188° |
| 2026-05-08 15:01 | 45.02145 | 8.97453 | 36975 ft | 432 kts | 188° |
| 2026-05-08 15:02 | 44.96119 | 8.97440 | 36980 ft | 437 kts | 182° |
| 2026-05-08 15:02 | 44.90058 | 8.98362 | 36986 ft | 441 kts | 177° |
| 2026-05-08 15:03 | 44.83982 | 8.99643 | 37009 ft | 440 kts | 178° |
| 2026-05-08 15:03 | 44.80961 | 9.00274 | 36859 ft | 440 kts | 178° |
| 2026-05-08 15:03 | 44.77945 | 9.00903 | 36450 ft | 437 kts | 178° |
| 2026-05-08 15:04 | 44.74974 | 9.01524 | 36102 ft | 433 kts | 178° |
| 2026-05-08 15:04 | 44.72013 | 9.02141 | 35865 ft | 430 kts | 178° |
| 2026-05-08 15:04 | 44.69071 | 9.02749 | 35432 ft | 429 kts | 179° |
| 2026-05-08 15:04 | 44.66122 | 9.03358 | 34965 ft | 428 kts | 179° |
| 2026-05-08 15:05 | 44.63179 | 9.03970 | 34535 ft | 426 kts | 179° |
| 2026-05-08 15:05 | 44.60274 | 9.04570 | 34088 ft | 424 kts | 179° |
| 2026-05-08 15:05 | 44.57385 | 9.05161 | 33632 ft | 421 kts | 180° |
| 2026-05-08 15:05 | 44.54487 | 9.05757 | 33192 ft | 417 kts | 179° |
| 2026-05-08 15:06 | 44.51639 | 9.06339 | 32778 ft | 413 kts | 179° |
| 2026-05-08 15:06 | 44.48828 | 9.06916 | 32332 ft | 410 kts | 179° |
| 2026-05-08 15:06 | 44.46013 | 9.07464 | 31876 ft | 405 kts | 181° |
| 2026-05-08 15:06 | 44.43218 | 9.07793 | 31430 ft | 399 kts | 184° |
| 2026-05-08 15:07 | 44.40495 | 9.07862 | 30977 ft | 393 kts | 188° |
| 2026-05-08 15:07 | 44.37775 | 9.07690 | 30518 ft | 387 kts | 191° |
| 2026-05-08 15:07 | 44.35107 | 9.07368 | 30025 ft | 384 kts | 192° |
| 2026-05-08 15:07 | 44.32471 | 9.07046 | 29600 ft | 381 kts | 192° |
| 2026-05-08 15:08 | 44.29841 | 9.06727 | 29199 ft | 377 kts | 192° |
| 2026-05-08 15:08 | 44.28109 | 9.06514 | 28942 ft | 374 kts | 192° |
| 2026-05-08 15:08 | 44.24679 | 9.06096 | 28372 ft | 370 kts | 191° |
| 2026-05-08 15:08 | 44.22151 | 9.05791 | 27961 ft | 367 kts | 191° |
| 2026-05-08 15:09 | 44.19596 | 9.05482 | 27571 ft | 363 kts | 191° |
| 2026-05-08 15:09 | 44.17122 | 9.05184 | 27175 ft | 360 kts | 190° |
| 2026-05-08 15:09 | 44.14637 | 9.04884 | 26780 ft | 357 kts | 190° |
| 2026-05-08 15:09 | 44.12172 | 9.04587 | 26399 ft | 353 kts | 190° |
| 2026-05-08 15:10 | 44.09739 | 9.04294 | 26027 ft | 349 kts | 189° |
| 2026-05-08 15:10 | 44.07338 | 9.04006 | 25653 ft | 346 kts | 189° |
| 2026-05-08 15:10 | 44.04960 | 9.03722 | 25275 ft | 343 kts | 189° |
| 2026-05-08 15:10 | 44.02618 | 9.03441 | 24910 ft | 340 kts | 188° |
| 2026-05-08 15:11 | 44.00254 | 9.03157 | 24515 ft | 338 kts | 188° |
| 2026-05-08 15:11 | 43.97944 | 9.02879 | 24135 ft | 335 kts | 187° |
| 2026-05-08 15:11 | 43.95623 | 9.02603 | 23763 ft | 332 kts | 187° |
| 2026-05-08 15:11 | 43.93353 | 9.02332 | 23386 ft | 329 kts | 187° |
| 2026-05-08 15:12 | 43.91095 | 9.02067 | 22994 ft | 326 kts | 187° |
| 2026-05-08 15:12 | 43.88815 | 9.01800 | 22621 ft | 324 kts | 187° |
| 2026-05-08 15:12 | 43.86596 | 9.01534 | 22227 ft | 322 kts | 187° |
| 2026-05-08 15:12 | 43.84370 | 9.01270 | 21838 ft | 320 kts | 188° |
| 2026-05-08 15:13 | 43.82158 | 9.01007 | 21451 ft | 319 kts | 187° |
| 2026-05-08 15:13 | 43.79971 | 9.00747 | 21069 ft | 317 kts | 188° |
| 2026-05-08 15:13 | 43.77765 | 9.00491 | 20681 ft | 316 kts | 188° |
| 2026-05-08 15:13 | 43.75599 | 9.00239 | 20300 ft | 315 kts | 187° |
| 2026-05-08 15:14 | 43.73402 | 8.99982 | 19907 ft | 315 kts | 188° |
| 2026-05-08 15:14 | 43.71215 | 8.99724 | 19524 ft | 314 kts | 188° |
| 2026-05-08 15:14 | 43.69049 | 8.99472 | 19144 ft | 313 kts | 188° |
| 2026-05-08 15:14 | 43.66890 | 8.99220 | 18773 ft | 312 kts | 188° |
| 2026-05-08 15:15 | 43.64727 | 8.98966 | 18401 ft | 312 kts | 188° |
| 2026-05-08 15:15 | 43.62591 | 8.98714 | 18035 ft | 311 kts | 187° |
| 2026-05-08 15:15 | 43.60418 | 8.98459 | 17667 ft | 310 kts | 187° |
| 2026-05-08 15:15 | 43.58279 | 8.98208 | 17304 ft | 310 kts | 187° |
| 2026-05-08 15:16 | 43.56144 | 8.97958 | 16939 ft | 309 kts | 187° |
| 2026-05-08 15:16 | 43.54006 | 8.97709 | 16575 ft | 308 kts | 187° |
| 2026-05-08 15:16 | 43.51873 | 8.97451 | 16203 ft | 307 kts | 187° |
| 2026-05-08 15:16 | 43.49755 | 8.97188 | 15836 ft | 307 kts | 187° |
| 2026-05-08 15:17 | 43.47636 | 8.96925 | 15465 ft | 307 kts | 186° |
| 2026-05-08 15:17 | 43.45506 | 8.96660 | 15095 ft | 307 kts | 187° |
| 2026-05-08 15:17 | 43.43395 | 8.96400 | 14732 ft | 306 kts | 186° |
| 2026-05-08 15:17 | 43.41285 | 8.96139 | 14368 ft | 305 kts | 186° |
| 2026-05-08 15:18 | 43.39167 | 8.95878 | 14004 ft | 304 kts | 186° |
| 2026-05-08 15:18 | 43.37097 | 8.95637 | 13872 ft | 298 kts | 186° |
| 2026-05-08 15:18 | 43.35009 | 8.95405 | 13896 ft | 298 kts | 186° |
| 2026-05-08 15:18 | 43.32941 | 8.95175 | 13921 ft | 299 kts | 186° |
| 2026-05-08 15:19 | 43.30880 | 8.94945 | 13939 ft | 300 kts | 186° |
| 2026-05-08 15:19 | 43.28807 | 8.94714 | 13953 ft | 300 kts | 186° |
| 2026-05-08 15:19 | 43.26715 | 8.94481 | 13959 ft | 300 kts | 186° |
| 2026-05-08 15:19 | 43.24623 | 8.94250 | 13960 ft | 301 kts | 184° |
| 2026-05-08 15:20 | 43.22559 | 8.94501 | 13955 ft | 303 kts | 166° |
| 2026-05-08 15:20 | 43.20604 | 8.95671 | 13962 ft | 305 kts | 151° |
| 2026-05-08 15:20 | 43.18792 | 8.97168 | 13963 ft | 306 kts | 149° |
| 2026-05-08 15:20 | 43.16997 | 8.98696 | 13960 ft | 307 kts | 149° |
| 2026-05-08 15:21 | 43.15163 | 9.00246 | 13959 ft | 308 kts | 149° |
| 2026-05-08 15:21 | 43.13327 | 9.01781 | 13959 ft | 309 kts | 149° |
| 2026-05-08 15:21 | 43.11494 | 9.03303 | 13959 ft | 308 kts | 150° |
| 2026-05-08 15:21 | 43.09657 | 9.04822 | 13959 ft | 308 kts | 150° |
| 2026-05-08 15:22 | 43.07826 | 9.06331 | 13956 ft | 308 kts | 150° |
| 2026-05-08 15:22 | 43.05995 | 9.07839 | 13956 ft | 308 kts | 150° |
| 2026-05-08 15:22 | 43.04169 | 9.09338 | 13961 ft | 307 kts | 150° |
| 2026-05-08 15:22 | 43.02343 | 9.10837 | 13954 ft | 307 kts | 150° |
| 2026-05-08 15:23 | 43.00512 | 9.12339 | 13960 ft | 307 kts | 150° |
| 2026-05-08 15:23 | 42.98679 | 9.13842 | 13962 ft | 307 kts | 150° |
| 2026-05-08 15:23 | 42.96854 | 9.15338 | 13958 ft | 307 kts | 150° |
| 2026-05-08 15:23 | 42.95010 | 9.16847 | 13957 ft | 308 kts | 150° |
| 2026-05-08 15:24 | 42.93187 | 9.18337 | 13954 ft | 308 kts | 150° |
| 2026-05-08 15:24 | 42.91334 | 9.19852 | 13951 ft | 308 kts | 150° |
| 2026-05-08 15:24 | 42.89494 | 9.21358 | 13667 ft | 310 kts | 150° |
| 2026-05-08 15:24 | 42.87658 | 9.22858 | 13260 ft | 310 kts | 150° |
| 2026-05-08 15:25 | 42.85798 | 9.24379 | 12882 ft | 308 kts | 149° |
| 2026-05-08 15:25 | 42.83989 | 9.25856 | 12531 ft | 306 kts | 149° |
| 2026-05-08 15:25 | 42.82169 | 9.27341 | 12179 ft | 304 kts | 149° |
| 2026-05-08 15:25 | 42.80350 | 9.28823 | 11833 ft | 301 kts | 149° |
| 2026-05-08 15:26 | 42.78578 | 9.30267 | 11493 ft | 298 kts | 149° |
| 2026-05-08 15:26 | 42.76799 | 9.31718 | 11145 ft | 296 kts | 149° |
| 2026-05-08 15:26 | 42.75048 | 9.33141 | 10802 ft | 293 kts | 149° |
| 2026-05-08 15:26 | 42.73304 | 9.34557 | 10462 ft | 290 kts | 149° |
| 2026-05-08 15:27 | 42.71604 | 9.35939 | 10127 ft | 287 kts | 148° |
| 2026-05-08 15:27 | 42.69883 | 9.37336 | 9775 ft | 284 kts | 148° |
| 2026-05-08 15:27 | 42.68198 | 9.38705 | 9442 ft | 281 kts | 148° |
| 2026-05-08 15:27 | 42.66534 | 9.40056 | 9108 ft | 278 kts | 148° |
| 2026-05-08 15:28 | 42.64888 | 9.41390 | 8763 ft | 276 kts | 148° |
| 2026-05-08 15:28 | 42.63245 | 9.42721 | 8425 ft | 274 kts | 148° |
| 2026-05-08 15:28 | 42.61606 | 9.44048 | 8090 ft | 273 kts | 148° |
| 2026-05-08 15:28 | 42.59998 | 9.45348 | 7732 ft | 271 kts | 148° |
| 2026-05-08 15:29 | 42.58387 | 9.46650 | 7408 ft | 269 kts | 148° |
| 2026-05-08 15:29 | 42.56767 | 9.47952 | 7077 ft | 267 kts | 148° |
| 2026-05-08 15:29 | 42.55163 | 9.49209 | 6746 ft | 266 kts | 149° |
| 2026-05-08 15:29 | 42.53563 | 9.50454 | 6419 ft | 265 kts | 149° |
| 2026-05-08 15:30 | 42.51967 | 9.51694 | 6092 ft | 264 kts | 149° |
| 2026-05-08 15:30 | 42.50380 | 9.52926 | 5765 ft | 264 kts | 148° |
| 2026-05-08 15:30 | 42.48790 | 9.54163 | 5448 ft | 263 kts | 148° |
| 2026-05-08 15:30 | 42.47216 | 9.55387 | 5123 ft | 262 kts | 148° |
| 2026-05-08 15:31 | 42.45631 | 9.56621 | 4795 ft | 262 kts | 148° |
| 2026-05-08 15:31 | 42.44075 | 9.57830 | 4583 ft | 255 kts | 148° |
| 2026-05-08 15:31 | 42.42567 | 9.58985 | 4508 ft | 244 kts | 148° |
| 2026-05-08 15:31 | 42.41110 | 9.60093 | 4420 ft | 234 kts | 148° |
| 2026-05-08 15:32 | 42.39712 | 9.61160 | 4299 ft | 226 kts | 148° |
| 2026-05-08 15:32 | 42.38385 | 9.62154 | 4207 ft | 216 kts | 153° |
| 2026-05-08 15:32 | 42.36913 | 9.62507 | 3921 ft | 219 kts | 191° |
| 2026-05-08 15:32 | 42.35604 | 9.61583 | 3667 ft | 216 kts | 229° |
| 2026-05-08 15:33 | 42.34922 | 9.59838 | 3417 ft | 209 kts | 264° |
| 2026-05-08 15:33 | 42.35055 | 9.57958 | 3179 ft | 201 kts | 296° |
| 2026-05-08 15:33 | 42.35882 | 9.56504 | 2946 ft | 195 kts | 327° |
| 2026-05-08 15:33 | 42.37095 | 9.55722 | 2733 ft | 190 kts | 344° |
| 2026-05-08 15:34 | 42.38364 | 9.55250 | 2547 ft | 185 kts | 347° |
| 2026-05-08 15:34 | 42.39580 | 9.54841 | 2413 ft | 179 kts | 348° |
| 2026-05-08 15:34 | 42.40789 | 9.54412 | 2398 ft | 179 kts | 346° |
| 2026-05-08 15:34 | 42.41989 | 9.53944 | 2389 ft | 178 kts | 345° |
| 2026-05-08 15:35 | 42.43122 | 9.53475 | 2244 ft | 163 kts | 345° |
| 2026-05-08 15:35 | 42.44168 | 9.53032 | 2023 ft | 151 kts | 345° |
| 2026-05-08 15:35 | 42.45130 | 9.52624 | 1828 ft | 140 kts | 346° |
| 2026-05-08 15:35 | 42.46043 | 9.52240 | 1640 ft | 135 kts | 345° |
| 2026-05-08 15:36 | 42.46940 | 9.51864 | 1476 ft | 135 kts | 345° |
| 2026-05-08 15:36 | 42.47836 | 9.51487 | 1305 ft | 134 kts | 345° |
| 2026-05-08 15:36 | 42.48735 | 9.51111 | 1132 ft | 134 kts | 345° |
| 2026-05-08 15:36 | 42.49622 | 9.50738 | 960 ft | 134 kts | 344° |
| 2026-05-08 15:37 | 42.50510 | 9.50366 | 783 ft | 133 kts | 344° |
| 2026-05-08 15:37 | 42.51400 | 9.49992 | 605 ft | 133 kts | 344° |
| 2026-05-08 15:37 | 42.52285 | 9.49621 | 429 ft | 133 kts | 344° |
| 2026-05-08 15:37 | 42.53158 | 9.49255 | 258 ft | 132 kts | 344° |
| 2026-05-08 15:38 | 42.54036 | 9.48886 | 96 ft | 131 kts | 343° |
| 2026-05-08 15:38 | 42.54896 | 9.48530 | 28 ft | 121 kts | 344° |
| 2026-05-08 15:38 | 42.55561 | 9.48255 | 22 ft | 75 kts | 343° |
| 2026-05-08 15:38 | 42.55861 | 9.48127 | 17 ft | 18 kts | 343° |
| 2026-05-08 15:39 | 42.55951 | 9.48075 | 17 ft | 13 kts | 310° |
| 2026-05-08 15:39 | 42.55955 | 9.47962 | 17 ft | 9 kts | 252° |
| 2026-05-08 15:39 | 42.55923 | 9.47878 | 18 ft | 10 kts | 219° |
| 2026-05-08 15:39 | 42.55850 | 9.47874 | 19 ft | 11 kts | 161° |
| 2026-05-08 15:40 | 42.55776 | 9.47906 | 20 ft | 11 kts | 162° |
| 2026-05-08 15:40 | 42.55700 | 9.47938 | 21 ft | 11 kts | 162° |
| 2026-05-08 15:40 | 42.55622 | 9.47971 | 22 ft | 11 kts | 163° |
| 2026-05-08 15:40 | 42.55544 | 9.48002 | 24 ft | 11 kts | 162° |
| 2026-05-08 15:41 | 42.55465 | 9.48035 | 25 ft | 11 kts | 162° |
| 2026-05-08 15:41 | 42.55386 | 9.48068 | 26 ft | 11 kts | 162° |
| 2026-05-08 15:41 | 42.55307 | 9.48103 | 27 ft | 12 kts | 162° |
| 2026-05-08 15:41 | 42.55224 | 9.48139 | 28 ft | 13 kts | 162° |
| 2026-05-08 15:42 | 42.55132 | 9.48177 | 28 ft | 12 kts | 163° |
| 2026-05-08 15:42 | 42.55050 | 9.48210 | 29 ft | 11 kts | 163° |
| 2026-05-08 15:42 | 42.54990 | 9.48235 | 30 ft | 8 kts | 161° |
| 2026-05-08 15:42 | 42.54941 | 9.48237 | 31 ft | 5 kts | 176° |
| 2026-05-08 15:43 | 42.54896 | 9.48253 | 31 ft | 7 kts | 163° |
| 2026-05-08 15:43 | 42.54846 | 9.48272 | 32 ft | 7 kts | 163° |
| 2026-05-08 15:43 | 42.54816 | 9.48260 | 32 ft | 4 kts | 256° |
| 2026-05-08 15:43 | 42.54821 | 9.48222 | 33 ft | 4 kts | 284° |
| 2026-05-08 15:44 | 42.54827 | 9.48182 | 33 ft | 2 kts | 282° |
| 2026-05-08 15:44 | 42.54829 | 9.48174 | 33 ft | 0 kts | 282° |